Flight Track Log - Related Links

Times and Time Zones

All times are in EDT time to prevent confusion due to time zone crossing. See the EJM826 flight status page for this flight to view local times or setup timezone preferences in your user account.

Time Position Orientation Groundspeed Altitude Reporting Facility
EDT Latitude Longitude Course Direction KTS MPH feet Rate Location/Type
Tue 07:07:34 PM 38.9333 -77.5000 238° Southwest 179 206 1,500  Level Potomac TRACON
Tue 07:08:40 PM 38.9000 -77.5667 237° Southwest 217 250 4,800 2,817 Climbing Potomac TRACON
Tue 07:09:29 PM 38.8731 -77.6314 242° Southwest 233 268 6,900 1,706 Climbing Washington Center
Tue 07:10:29 PM 38.8122 -77.6669 204° Southwest 270 311 7,900 1,881 Climbing Washington Center
Tue 07:11:27 PM 38.7411 -77.6811 189° South 296 341 10,600 2,950 Climbing Washington Center
Tue 07:12:29 PM 38.6594 -77.6972 189° South 310 357 13,800 2,656 Climbing Washington Center
Tue 07:13:00 PM 38.7149 -78.0994 238° Southwest  Level Estimated
Tue 07:13:29 PM 38.5756 -77.7161 190° South 310 357 16,000  Level Washington Center
Tue 07:14:27 PM 38.4958 -77.7483 198° South 310 357 18,400 2,186 Climbing Washington Center
Tue 07:15:27 PM 38.4525 -77.8347 237° Southwest 288 331 20,300 2,050 Climbing Washington Center
Tue 07:16:27 PM 38.4094 -77.9156 236° Southwest 288 331 22,500 1,835 Climbing Washington Center
Tue 07:17:28 PM 38.3575 -78.0117 235° Southwest 294 338 24,000 1,438 Climbing Washington Center
Tue 07:18:28 PM 38.3117 -78.1003 237° Southwest 299 344 25,400 1,300 Climbing Washington Center
Tue 07:19:28 PM 38.2661 -78.1861 236° Southwest 299 344 26,600 1,240 Climbing Washington Center
Tue 07:20:29 PM 38.2183 -78.2769 236° Southwest 299 344 27,900 1,311 Climbing Washington Center
Tue 07:21:27 PM 38.1725 -78.3625 236° Southwest 299 344 29,200 1,059 Climbing Washington Center
Tue 07:22:28 PM 38.1267 -78.4478 236° Southwest 299 344 30,000 787 Climbing Washington Center
Tue 07:23:29 PM 38.1019 -78.5314 249° West 288 331 30,800 496 Climbing Washington Center
Tue 07:24:29 PM 38.0703 -78.6250 247° West 288 331 31,000 508 Climbing Washington Center
Tue 07:25:27 PM 38.0342 -78.7289 246° West 293 337 31,800 958 Climbing Washington Center
Tue 07:26:28 PM 38.0025 -78.8253 247° West 293 337 32,900 1,000 Climbing Washington Center
Tue 07:27:27 PM 37.9708 -78.9161 246° West 288 331 33,800 942 Climbing Washington Center
Tue 07:28:29 PM 37.9392 -79.0069 246° West 288 331 34,800 1,100 Climbing Washington Center
Tue 07:29:27 PM 37.9017 -79.0789 237° Southwest 288 331 36,000 610 Climbing Washington Center
Tue 07:30:27 PM 37.8392 -79.1442 220° Southwest 283 326 36,000 450 Level Washington Center
Tue 07:31:27 PM 37.7683 -79.2092 216° Southwest 296 341 36,900 850 Climbing Washington Center
Tue 07:32:27 PM 37.7117 -79.2906 229° Southwest 315 362 37,700 893 Climbing Washington Center
Tue 07:33:28 PM 37.6647 -79.3931 240° Southwest 315 362 38,700 650 Climbing Washington Center
Tue 07:34:27 PM 37.6264 -79.4778 240° Southwest 309 356 39,000 150 Climbing Washington Center
Tue 07:35:28 PM 37.5808 -79.5933 244° Southwest 323 372 39,000  Level Washington Center
Tue 07:36:29 PM 37.5381 -79.6881 240° Southwest 335 386 39,000  Level Washington Center
Tue 07:37:27 PM 37.4861 -79.8056 241° Southwest 346 398 39,000 202 Level Washington Center
Tue 07:38:28 PM 37.4358 -79.9233 242° Southwest 374 430 39,400 457 Climbing Washington Center
Tue 07:40:57 PM 37.3217 -80.1767 241° Southwest 359 413 40,600 517 Climbing Atlanta Center
Tue 07:41:57 PM 37.2711 -80.2939 242° Southwest 359 413 41,200 550 Climbing Atlanta Center
Tue 07:42:57 PM 37.2222 -80.4003 240° Southwest 359 413 41,700 500 Climbing Atlanta Center
Tue 07:43:57 PM 37.1772 -80.5067 242° Southwest 359 413 42,200 450 Climbing Atlanta Center
Tue 07:44:57 PM 37.1281 -80.6131 240° Southwest 359 413 42,600 400 Climbing Atlanta Center
Tue 07:45:57 PM 37.0850 -80.7111 241° Southwest 359 413 43,000 200 Climbing Atlanta Center
Tue 07:46:57 PM 37.0442 -80.8247 246° West 359 413 43,000  Level Atlanta Center
Tue 07:47:57 PM 37.0033 -80.9408 246° West 359 413 43,000  Level Atlanta Center
Tue 07:48:57 PM 36.9606 -81.0592 246° West 365 420 43,000  Level Atlanta Center
Tue 07:49:57 PM 36.9156 -81.1881 246° West 370 426 43,000  Level Atlanta Center
Tue 07:50:57 PM 36.8725 -81.3039 245° Southwest 370 426 43,000  Level Atlanta Center
Tue 07:51:57 PM 36.8292 -81.4222 245° Southwest 370 426 43,000  Level Atlanta Center
Tue 07:52:57 PM 36.7856 -81.5375 245° Southwest 370 426 43,000  Level Atlanta Center
Tue 07:53:57 PM 36.7544 -81.6422 250° West 358 412 43,000  Level Atlanta Center
Tue 07:54:57 PM 36.7067 -81.7731 246° West 358 412 43,000  Level Atlanta Center
Tue 07:55:57 PM 36.6631 -81.8881 245° Southwest 368 423 43,000  Level Atlanta Center
Tue 07:56:57 PM 36.6192 -82.0058 245° Southwest 368 423 43,000  Level Atlanta Center
Tue 07:57:57 PM 36.5772 -82.1231 246° West 373 429 43,000  Level Atlanta Center
Tue 07:58:57 PM 36.5311 -82.2406 244° Southwest 373 429 43,000  Level Atlanta Center
Tue 07:59:57 PM 36.4847 -82.3553 243° Southwest 378 435 43,000  Level Atlanta Center
Tue 08:00:57 PM 36.4342 -82.4722 242° Southwest 378 435 43,000  Level Atlanta Center
Tue 08:01:57 PM 36.3875 -82.5867 243° Southwest 378 435 43,000  Level Atlanta Center
Tue 08:02:57 PM 36.3408 -82.7036 244° Southwest 378 435 43,000  Level Atlanta Center
Tue 08:03:57 PM 36.2922 -82.8203 243° Southwest 378 435 43,000  Level Atlanta Center
Tue 08:04:57 PM 36.2453 -82.9342 243° Southwest 373 429 43,000  Level Atlanta Center
Tue 08:05:57 PM 36.1981 -83.0481 243° Southwest 373 429 43,000  Level Atlanta Center
Tue 08:06:57 PM 36.1489 -83.1619 242° Southwest 373 429 43,000  Level Atlanta Center
Tue 08:07:57 PM 36.0997 -83.2781 242° Southwest 378 435 43,000  Level Atlanta Center
Tue 08:08:57 PM 36.0525 -83.3917 243° Southwest 378 435 43,000  Level Atlanta Center
Tue 08:09:57 PM 36.0069 -83.4972 242° Southwest 378 435 43,000  Level Atlanta Center
Tue 08:10:57 PM 35.9617 -83.6078 243° Southwest 373 429 43,000  Level Atlanta Center
Tue 08:11:57 PM 35.9119 -83.7233 242° Southwest 373 429 43,000  Level Atlanta Center
Tue 08:12:57 PM 35.8642 -83.8364 242° Southwest 373 429 43,000  Level Atlanta Center
Tue 08:13:57 PM 35.8142 -83.9492 241° Southwest 373 429 43,000  Level Atlanta Center
Tue 08:14:57 PM 35.7642 -84.0644 242° Southwest 373 429 43,000  Level Atlanta Center
Tue 08:15:57 PM 35.7161 -84.1769 242° Southwest 373 429 43,000  Level Atlanta Center
Tue 08:16:57 PM 35.6681 -84.2867 242° Southwest 373 429 43,000  Level Atlanta Center
Tue 08:17:57 PM 35.6175 -84.3989 241° Southwest 373 429 43,000  Level Atlanta Center
Tue 08:18:57 PM 35.5692 -84.5086 242° Southwest 373 429 43,000  Level Atlanta Center
Tue 08:19:57 PM 35.5208 -84.6231 243° Southwest 373 429 43,000  Level Atlanta Center
Tue 08:20:57 PM 35.4744 -84.7325 243° Southwest 373 429 43,000  Level Atlanta Center
Tue 08:21:57 PM 35.4236 -84.8442 241° Southwest 373 429 43,000  Level Atlanta Center
Tue 08:22:57 PM 35.3686 -84.9633 241° Southwest 373 429 43,000  Level Atlanta Center
Tue 08:23:57 PM 35.3197 -85.0747 242° Southwest 373 429 43,000  Level Atlanta Center
Tue 08:24:57 PM 35.2728 -85.1836 242° Southwest 373 429 43,000  Level Atlanta Center
Tue 08:25:57 PM 35.2236 -85.2922 241° Southwest 373 429 43,000  Level Atlanta Center
Tue 08:27:05 PM 35.1686 -85.4147 241° Southwest 363 418 43,000  Level Memphis Center
Tue 08:28:07 PM 35.1194 -85.5214 241° Southwest 361 415 43,000  Level Memphis Center
Tue 08:28:57 PM 35.0803 -85.6150 243° Southwest 373 429 43,000  Level Atlanta Center
Tue 08:29:57 PM 35.0308 -85.7206 240° Southwest 368 423 43,000  Level Atlanta Center
Tue 08:30:57 PM 34.9833 -85.8233 241° Southwest 368 423 43,000  Level Atlanta Center
Tue 08:31:57 PM 34.9339 -85.9289 240° Southwest 368 423 43,000  Level Atlanta Center
Tue 08:32:57 PM 34.8947 -86.0217 243° Southwest 356 410 43,000  Level Atlanta Center
Tue 08:33:57 PM 34.8450 -86.1267 240° Southwest 351 404 43,000  Level Atlanta Center
Tue 08:34:57 PM 34.7953 -86.2317 240° Southwest 351 404 43,000  Level Atlanta Center
Tue 08:35:57 PM 34.7475 -86.3367 241° Southwest 351 404 43,000  Level Atlanta Center
Tue 08:36:57 PM 34.6975 -86.4414 240° Southwest 356 410 43,000  Level Atlanta Center
Tue 08:37:57 PM 34.6494 -86.5461 241° Southwest 356 410 43,000  Level Atlanta Center
Tue 08:38:57 PM 34.5992 -86.6506 240° Southwest 356 410 43,000  Level Atlanta Center
Tue 08:41:28 PM 34.4769 -86.9119 240° Southwest 356 410 43,000  Level Memphis Center
Tue 08:42:29 PM 34.4272 -87.0183 240° Southwest 358 412 43,000  Level Memphis Center
Tue 08:43:31 PM 34.3683 -87.1408 240° Southwest 358 412 43,000  Level Memphis Center
Tue 08:44:32 PM 34.3208 -87.2414 240° Southwest 360 414 43,000  Level Memphis Center
Tue 08:45:34 PM 34.2706 -87.3481 240° Southwest 362 417 43,000  Level Memphis Center
Tue 08:46:35 PM 34.2189 -87.4536 239° Southwest 362 417 43,000  Level Memphis Center
Tue 08:47:36 PM 34.1681 -87.5600 240° Southwest 362 417 43,000  Level Memphis Center
Tue 08:48:38 PM 34.1181 -87.6656 240° Southwest 360 414 43,000  Level Memphis Center
Tue 08:49:39 PM 34.0675 -87.7706 240° Southwest 359 413 43,000  Level Memphis Center
Tue 08:50:41 PM 34.0167 -87.8753 240° Southwest 359 413 43,000  Level Memphis Center
Tue 08:51:42 PM 33.9578 -87.9981 240° Southwest 359 413 43,000  Level Memphis Center
Tue 08:52:44 PM 33.9061 -88.1031 239° Southwest 360 414 43,000  Level Memphis Center
Tue 08:53:45 PM 33.8558 -88.2050 239° Southwest 361 415 43,000  Level Memphis Center
Tue 08:54:47 PM 33.8053 -88.3083 240° Southwest 360 414 43,000  Level Memphis Center
Tue 08:55:48 PM 33.7544 -88.4119 239° Southwest 360 414 43,000  Level Memphis Center
Tue 08:56:49 PM 33.7036 -88.5164 240° Southwest 362 417 43,000  Level Memphis Center
Tue 08:57:51 PM 33.6525 -88.6203 239° Southwest 363 418 43,000  Level Memphis Center
Tue 08:58:52 PM 33.6008 -88.7244 239° Southwest 363 418 43,000  Level Memphis Center
Tue 08:59:54 PM 33.5497 -88.8278 239° Southwest 362 417 43,000  Level Memphis Center
Tue 09:00:55 PM 33.4869 -88.9506 239° Southwest 360 414 43,000  Level Memphis Center
Tue 09:01:57 PM 33.4350 -89.0550 239° Southwest 365 420 43,000  Level Memphis Center
Tue 09:02:58 PM 33.3842 -89.1583 240° Southwest 364 419 43,000  Level Memphis Center
Tue 09:04:00 PM 33.3322 -89.2606 239° Southwest 363 418 43,000  Level Memphis Center
Tue 09:05:01 PM 33.2800 -89.3633 239° Southwest 363 418 43,000  Level Memphis Center
Tue 09:06:02 PM 33.2289 -89.4653 239° Southwest 362 417 43,000  Level Memphis Center
Tue 09:07:04 PM 33.1769 -89.5686 239° Southwest 364 419 43,000  Level Memphis Center
Tue 09:08:05 PM 33.1156 -89.6908 239° Southwest 363 418 43,000  Level Memphis Center
Tue 09:09:07 PM 33.0639 -89.7936 239° Southwest 365 420 43,000  Level Memphis Center
Tue 09:10:08 PM 33.0058 -89.8978 236° Southwest 362 417 43,000  Level Memphis Center
Tue 09:11:09 PM 32.9592 -89.9956 240° Southwest 367 422 43,000  Level Memphis Center
Tue 09:12:11 PM 32.8969 -90.1183 239° Southwest 368 423 43,000  Level Memphis Center
Tue 09:13:12 PM 32.8436 -90.2194 238° Southwest 365 420 43,000  Level Memphis Center
Tue 09:14:14 PM 32.7908 -90.3214 238° Southwest 365 420 43,000  Level Memphis Center
Tue 09:15:15 PM 32.7375 -90.4242 238° Southwest 367 422 43,000  Level Memphis Center
Tue 09:16:16 PM 32.6839 -90.5275 238° Southwest 369 425 43,000  Level Memphis Center
Tue 09:17:18 PM 32.6292 -90.6300 238° Southwest 370 426 43,000  Level Memphis Center
Tue 09:18:19 PM 32.5756 -90.7347 239° Southwest 372 428 43,000  Level Memphis Center
Tue 09:19:21 PM 32.5103 -90.8583 238° Southwest 373 429 43,000  Level Memphis Center
Tue 09:20:22 PM 32.4556 -90.9617 238° Southwest 373 429 43,000  Level Memphis Center
Tue 09:21:23 PM 32.4003 -91.0653 238° Southwest 374 430 43,000  Level Memphis Center
Tue 09:22:01 PM 32.3644 -91.1381 240° Southwest 371 427 43,000  Level Houston Center
Tue 09:23:02 PM 32.3086 -91.2419 238° Southwest 373 429 43,000  Level Houston Center
Tue 09:24:03 PM 32.2544 -91.3467 239° Southwest 373 429 43,000  Level Houston Center
Tue 09:25:04 PM 32.1978 -91.4494 237° Southwest 374 430 43,000  Level Houston Center
Tue 09:26:06 PM 32.1431 -91.5550 239° Southwest 376 433 43,000  Level Houston Center
Tue 09:27:07 PM 32.0867 -91.6583 237° Southwest 377 434 43,000  Level Houston Center
Tue 09:28:08 PM 32.0308 -91.7625 238° Southwest 375 432 43,000  Level Houston Center
Tue 09:29:09 PM 31.9750 -91.8653 237° Southwest 375 432 43,000  Level Houston Center
Tue 09:30:11 PM 31.9200 -91.9683 238° Southwest 373 429 43,000  Level Houston Center
Tue 09:31:12 PM 31.8594 -92.0806 238° Southwest 374 430 43,000  Level Houston Center
Tue 09:32:13 PM 31.8031 -92.1831 237° Southwest 374 430 43,000  Level Houston Center
Tue 09:33:14 PM 31.7464 -92.2869 237° Southwest 378 435 43,000  Level Houston Center
Tue 09:34:15 PM 31.6908 -92.3897 238° Southwest 376 433 43,000  Level Houston Center
Tue 09:35:17 PM 31.6353 -92.4911 237° Southwest 370 426 43,000  Level Houston Center
Tue 09:36:18 PM 31.5697 -92.6125 238° Southwest 368 423 43,000  Level Houston Center
Tue 09:37:19 PM 31.5144 -92.7125 237° Southwest 368 423 43,000  Level Houston Center
Tue 09:38:20 PM 31.4594 -92.8128 237° Southwest 367 422 43,000  Level Houston Center
Tue 09:39:21 PM 31.4039 -92.9122 237° Southwest 366 421 43,000  Level Houston Center
Tue 09:40:22 PM 31.3489 -93.0114 237° Southwest 364 419 43,000 -197 Level Houston Center
Tue 09:41:23 PM 31.2933 -93.1122 237° Southwest 368 423 42,600 -1,623 Descending Houston Center
Tue 09:42:24 PM 31.2367 -93.2125 237° Southwest 370 426 39,700 -2,557 Descending Houston Center
Tue 09:43:25 PM 31.1811 -93.3108 237° Southwest 365 420 37,400 -2,244 Descending Houston Center
Tue 09:44:27 PM 31.1244 -93.4117 237° Southwest 371 427 35,100 -2,244 Descending Houston Center
Tue 09:45:28 PM 31.0672 -93.5136 237° Southwest 376 433 32,800 -2,557 Descending Houston Center
Tue 09:46:29 PM 30.9958 -93.6394 237° Southwest 386 444 29,900 -2,656 Descending Houston Center
Tue 09:47:30 PM 30.9342 -93.7494 237° Southwest 402 463 27,400 -2,459 Descending Houston Center
Tue 09:48:31 PM 30.8747 -93.8586 238° Southwest 403 464 24,900 -2,380 Descending Houston Center
Tue 09:49:31 PM 30.8158 -93.9597 236° Southwest 388 447 22,600 -2,430 Descending Houston Center
Tue 09:50:32 PM 30.7536 -94.0708 237° Southwest 407 468 20,000 -2,607 Descending Houston Center
Tue 09:51:33 PM 30.6831 -94.1936 236° Southwest 453 521 17,300 -2,807 Descending Houston Center
Tue 09:52:21 PM 30.6208 -94.3017 236° Southwest 458 527 14,900 -2,656 Descending Houston Center
Tue 09:52:34 PM 30.6139 -94.3142 237° Southwest 452 520 14,600 -2,270 Descending Houston Center
Tue 09:53:35 PM 30.5517 -94.4219 236° Southwest 409 471 12,100 -2,667 Descending Houston Center
Tue 09:53:46 PM 30.5350 -94.4536 239° Southwest 377 434 11,400 -2,459 Descending Houston Center
Tue 09:54:36 PM 30.5042 -94.5272 244° Southwest 345 397 9,600 -2,459 Descending Houston Center
Tue 09:54:47 PM 30.5064 -94.5497 277° West 311 358 8,900 -2,262 Descending Houston Center
Tue 09:55:37 PM 30.5269 -94.6203 289° West 304 350 7,300 -2,066 Descending Houston Center
Tue 09:55:48 PM 30.5281 -94.6414 274° West 287 330 6,800 -1,279 Descending Houston Center
Tue 09:56:38 PM 30.5256 -94.7114 268° West 285 328 6,000 -900 Descending Houston Center
Tue 09:56:48 PM 30.5183 -94.7375 252° West 279 321 5,900  Descending Houston Center
Tue 09:57:39 PM 30.5147 -94.8017 266° West 281 323 6,000 -164 Climbing Houston Center
Tue 09:58:01 PM 30.5078 -94.8478 260° West 286 329 5,700 -676 Descending Houston Center
Tue 09:58:50 PM 30.4997 -94.9192 263° West 286 329 5,200 -600 Descending Houston Center
Tue 09:59:51 PM 30.4878 -95.0153 262° West 288 331 4,600 -541 Descending Houston Center
Tue 10:00:52 PM 30.4775 -95.1064 263° West 278 320 4,100 -429 Descending Houston Center
Tue 10:01:43 PM 30.4722 -95.1647 264° West 276 318 3,800 -492 Descending Houston Center
Tue 10:01:53 PM 30.4667 -95.1950 258° West 270 311 3,600 -787 Descending Houston Center
Tue 10:02:44 PM 30.4581 -95.2650 262° West 265 305 3,000 -778 Descending Houston Center
Tue 10:02:47 PM 30.4567 -95.2689 247° West 243 280 2,900 -885 Descending Houston Center
Tue 10:03:45 PM 30.4517 -95.3386 265° West 235 270 2,100 -822 Descending Houston Center
Tue 10:04:00 PM 30.4500 -95.3544 263° West 211 243 1,900 -492 Descending Houston Center
Tue 10:04:46 PM 30.4450 -95.3989 263° West 196 226 1,600 -545 Descending Houston Center
Tue 10:04:55 PM 30.4356 -95.4047 208° Southwest 173 199 1,400 -492 Descending Houston Center
Tue 10:05:47 PM 30.4183 -95.4319 234° Southwest 181 208 1,100 -492 Descending Houston Center
Tue 10:05:56 PM 30.4047 -95.4353 192° South 154 177 900 -514 Descending Houston Center
Tue 10:06:57 PM 30.3658 -95.4228 164° South 136 157 500 -393 Descending Houston Center
Tue 10:08:00 PM 30.3524 -95.4145 152° Southeast  Level Estimated
Tue 10:15:00 PM 30.3524 -95.4145 60° Northeast  Level Estimated

Login

Don't have an account? Register now (free) for customized features, flight alerts, and more!